createdAt,value
2018-03-24T00:18:25.729Z,89.10
2018-03-24T00:23:53.214Z,89.20
2018-03-24T00:26:20.783Z,89.20
2018-03-24T00:28:48.369Z,89.20
2018-03-24T00:31:15.927Z,89.40
2018-03-24T00:33:43.516Z,89.30
2018-03-24T00:36:11.103Z,89.30
2018-03-24T00:38:38.708Z,89.30
2018-03-24T00:41:06.294Z,89.40
2018-03-24T00:43:33.878Z,89.20
2018-03-24T00:46:02.214Z,89.30
2018-03-24T00:48:29.818Z,89.20
2018-03-24T00:50:58.153Z,89.60
2018-03-24T00:53:25.726Z,89.60
2018-03-24T00:55:53.314Z,89.60
2018-03-24T00:58:21.812Z,89.50
2018-03-24T01:00:50.291Z,89.30
2018-03-24T01:03:18.601Z,90.00
2018-03-24T01:05:46.166Z,89.20
2018-03-24T01:08:13.747Z,89.10
2018-03-24T01:10:41.294Z,89.10
2018-03-24T01:13:08.875Z,89.40
2018-03-24T01:21:50.783Z,89.70
2018-03-24T02:13:16.727Z,90.10
2018-03-24T03:13:44.591Z,90.10
2018-03-24T06:14:11.741Z,88.50
2018-03-24T07:26:03.767Z,83.70
2018-03-24T07:28:32.117Z,83.10
2018-03-24T07:30:59.699Z,83.10
2018-03-24T07:33:28.053Z,83.20
2018-03-24T07:35:55.653Z,83.20
2018-03-24T07:38:24.032Z,83.20
2018-03-24T07:40:52.698Z,82.50
2018-03-24T07:43:20.244Z,82.50
2018-03-24T07:45:47.792Z,82.70
2018-03-24T07:48:19.909Z,82.90
2018-03-24T07:50:48.240Z,82.50
2018-03-24T07:53:15.771Z,82.40
2018-03-24T08:08:34.187Z,80.20
2018-03-24T08:11:02.543Z,80.90
2018-03-24T08:16:23.665Z,79.80
2018-03-24T08:27:37.289Z,78.40
2018-03-24T08:30:05.630Z,77.80
2018-03-24T08:32:34.069Z,77.70
2018-03-24T08:35:01.626Z,77.80
2018-03-24T08:37:29.462Z,77.70
2018-03-24T08:39:56.972Z,77.30
2018-03-24T08:42:24.513Z,77.70
2018-03-24T08:47:26.514Z,76.10
2018-03-24T08:49:54.048Z,75.50
2018-03-24T08:52:21.603Z,75.60
2018-03-24T08:54:49.157Z,76.00
2018-03-24T08:57:17.484Z,72.20
2018-03-24T08:59:45.057Z,72.10
2018-03-24T09:02:12.952Z,70.90
2018-03-24T09:04:41.285Z,71.00
2018-03-24T09:07:08.877Z,70.90
2018-03-24T09:09:37.367Z,69.80
2018-03-24T09:12:05.682Z,67.70
2018-03-24T09:23:14.614Z,70.00
2018-03-24T09:25:42.224Z,70.20
2018-03-24T09:28:18.343Z,70.40
2018-03-24T09:30:45.927Z,70.20
2018-03-24T09:33:13.592Z,70.60
2018-03-24T09:35:41.270Z,69.80
2018-03-24T09:38:08.839Z,69.60
2018-03-24T09:40:36.430Z,68.80
2018-03-24T09:43:04.017Z,68.60
2018-03-24T09:45:31.607Z,68.50
2018-03-24T09:48:01.926Z,69.20
2018-03-24T10:15:44.369Z,66.10
2018-03-24T16:31:25.693Z,52.00
2018-03-24T16:33:53.234Z,52.30
2018-03-24T16:36:20.779Z,52.30
2018-03-24T16:38:49.694Z,52.50
2018-03-24T16:41:17.280Z,52.50
2018-03-24T16:43:44.823Z,52.60
2018-03-24T16:46:12.377Z,52.90
2018-03-24T16:48:40.262Z,53.40
2018-03-24T16:51:07.801Z,53.40
2018-03-24T16:53:36.104Z,53.10
2018-03-24T16:56:03.671Z,53.00
2018-03-24T16:58:31.212Z,53.30
2018-03-24T17:00:58.780Z,53.70
2018-03-24T17:03:26.318Z,54.20
2018-03-24T17:05:54.134Z,54.10
2018-03-24T17:08:21.709Z,54.50
2018-03-24T17:10:49.277Z,55.30
2018-03-24T18:25:34.089Z,61.80
2018-03-24T18:28:01.650Z,61.90
2018-03-24T18:30:29.821Z,61.50
2018-03-24T18:32:57.360Z,61.30
2018-03-24T18:35:24.946Z,61.50
2018-03-24T18:37:52.494Z,61.60
2018-03-24T18:40:20.740Z,62.00
2018-03-24T18:42:49.058Z,62.50
2018-03-24T18:45:16.659Z,62.50
2018-03-24T18:47:44.217Z,62.90
2018-03-24T18:50:11.770Z,63.10
2018-03-24T18:52:39.344Z,63.50
2018-03-24T18:55:06.901Z,63.60
2018-03-24T18:57:34.451Z,63.80
2018-03-24T19:00:02.002Z,64.00
2018-03-24T19:02:30.292Z,64.50
2018-03-24T19:04:57.850Z,64.70
2018-03-24T19:07:25.581Z,64.90
2018-03-24T19:09:53.150Z,65.00
2018-03-24T19:12:20.709Z,65.00
